Time;durP1;ratioP1;P1;durP2;ratioP2;P2;SDS_P1;SDS_P2;PMS_P1;PMS_P2;Temp;Humidity;BMP_temperature;BMP_pressure;BME280_temperature;BME280_humidity;BME280_pressure;Samples;Min_cycle;Max_cycle;Signal;HPM_P1;HPM_P2
2024/01/18 00:02:13;;;;;;;36.22;20.02;;;;;;;0.01;99.51;99232.25;10308785;28;20082;-63
2024/01/18 00:07:35;;;;;;;38.03;18.23;;;;;;;0.03;100.00;99235.63;10305386;28;20503;-63
2024/01/18 00:12:57;;;;;;;31.48;18.35;;;;;;;0.02;99.53;99241.53;10309542;28;20046;-63
2024/01/18 00:18:18;;;;;;;26.92;17.30;;;;;;;-0.02;100.00;99252.63;10308106;28;20046;-63
2024/01/18 00:23:40;;;;;;;29.38;17.05;;;;;;;0.04;100.00;99247.44;10306703;28;20057;-63
2024/01/18 00:29:02;;;;;;;27.02;16.55;;;;;;;0.07;100.00;99247.44;10308287;28;20711;-63
2024/01/18 00:34:24;;;;;;;28.27;17.70;;;;;;;0.10;99.67;99251.63;10307058;28;20049;-63
2024/01/18 00:39:46;;;;;;;32.92;18.42;;;;;;;0.09;100.00;99257.56;10320299;28;20112;-64
2024/01/18 00:45:07;;;;;;;27.60;17.35;;;;;;;0.12;99.89;99263.44;10309307;28;20130;-64
2024/01/18 00:50:29;;;;;;;28.92;16.98;;;;;;;0.18;100.00;99276.09;10325442;28;20498;-64
2024/01/18 00:55:51;;;;;;;27.92;16.83;;;;;;;0.20;100.00;99282.00;10312998;28;20071;-64
2024/01/18 01:01:13;;;;;;;27.10;17.27;;;;;;;0.21;100.00;99283.66;10310342;28;20137;-63
2024/01/18 01:06:35;;;;;;;31.67;18.40;;;;;;;0.07;100.00;99305.91;10318536;28;20077;-64
2024/01/18 01:11:59;;;;;;;31.45;17.00;;;;;;;0.04;100.00;99311.00;10301390;28;20048;-64
2024/01/18 01:17:21;;;;;;;19.48;12.10;;;;;;;-0.04;100.00;99307.72;10307326;28;20054;-63
2024/01/18 01:22:43;;;;;;;27.15;16.70;;;;;;;-0.11;100.00;99314.56;10295688;28;20049;-63
2024/01/18 01:28:05;;;;;;;27.77;16.92;;;;;;;-0.10;100.00;99328.13;10307595;28;20538;-63
2024/01/18 01:33:28;;;;;;;26.55;16.90;;;;;;;-0.12;100.00;99350.16;10319051;28;20088;-63
2024/01/18 01:38:50;;;;;;;28.05;16.17;;;;;;;-0.23;100.00;99345.22;10306757;28;20050;-64
2024/01/18 01:44:11;;;;;;;29.73;17.17;;;;;;;-0.23;100.00;99357.06;10309934;28;20440;-64
2024/01/18 01:49:33;;;;;;;25.45;15.73;;;;;;;-0.32;100.00;99365.63;10309509;28;20084;-64
2024/01/18 01:54:56;;;;;;;28.70;16.23;;;;;;;-0.37;100.00;99375.03;10318229;28;20552;-64
2024/01/18 02:00:18;;;;;;;30.10;17.52;;;;;;;-0.35;100.00;99387.69;10289413;28;20059;-64
2024/01/18 02:05:41;;;;;;;30.42;17.42;;;;;;;-0.40;100.00;99390.25;10303373;28;20051;-64
2024/01/18 02:11:04;;;;;;;28.45;17.70;;;;;;;-0.46;100.00;99384.41;10303582;28;20539;-64
2024/01/18 02:16:26;;;;;;;28.67;16.77;;;;;;;-0.44;100.00;99387.78;10307905;28;20058;-64
2024/01/18 02:21:48;;;;;;;29.33;16.30;;;;;;;-0.44;100.00;99387.78;10315338;28;20042;-63
2024/01/18 02:27:09;;;;;;;26.23;16.55;;;;;;;-0.46;100.00;99384.41;10302421;28;20050;-63
2024/01/18 02:32:31;;;;;;;29.52;16.95;;;;;;;-0.47;100.00;99392.88;10306839;28;20073;-63
2024/01/18 02:37:53;;;;;;;30.58;17.55;;;;;;;-0.57;100.00;99397.22;10294457;28;20104;-63
2024/01/18 02:43:14;;;;;;;30.02;17.35;;;;;;;-0.58;100.00;99384.50;10306729;28;20070;-63
2024/01/18 02:48:36;;;;;;;26.35;17.30;;;;;;;-0.55;100.00;99395.47;10307036;28;20109;-63
2024/01/18 02:53:58;;;;;;;27.02;17.23;;;;;;;-0.58;100.00;99395.53;10301538;28;20047;-63
2024/01/18 02:59:20;;;;;;;26.73;16.98;;;;;;;-0.60;100.00;99406.53;10296376;28;20377;-63
2024/01/18 03:04:42;;;;;;;31.25;17.48;;;;;;;-0.55;100.00;99399.75;10302516;28;20047;-63
2024/01/18 03:10:04;;;;;;;31.60;17.50;;;;;;;-0.50;100.00;99405.63;10295076;28;20062;-63
2024/01/18 03:15:26;;;;;;;39.65;20.42;;;;;;;-0.49;100.00;99404.75;10305687;28;20050;-63
2024/01/18 03:20:48;;;;;;;36.60;19.50;;;;;;;-0.53;100.00;99410.72;10303616;28;20050;-63
2024/01/18 03:26:10;;;;;;;26.42;16.52;;;;;;;-0.53;100.00;99423.44;10299890;28;20411;-63
2024/01/18 03:31:31;;;;;;;32.55;17.05;;;;;;;-0.59;100.00;99423.47;10302950;28;20125;-63
2024/01/18 03:36:53;;;;;;;28.88;16.88;;;;;;;-0.57;100.00;99415.00;10302641;28;20046;-63
2024/01/18 03:42:15;;;;;;;26.10;16.50;;;;;;;-0.57;100.00;99416.69;10303048;28;20042;-63
2024/01/18 03:47:36;;;;;;;25.50;15.93;;;;;;;-0.62;100.00;99403.19;10298973;28;20113;-63
2024/01/18 03:52:58;;;;;;;29.40;17.00;;;;;;;-0.70;100.00;99404.94;10301383;28;20078;-63
2024/01/18 03:58:20;;;;;;;28.15;17.27;;;;;;;-0.70;100.00;99420.19;10301306;28;20511;-64
2024/01/18 04:03:48;;;;;;;28.20;16.67;;;;;;;-0.84;100.00;99416.91;10291155;28;20042;-63
2024/01/18 04:09:10;;;;;;;24.80;16.67;;;;;;;-0.84;100.00;99411.84;10305733;28;20054;-64
2024/01/18 04:14:32;;;;;;;23.88;16.45;;;;;;;-0.81;100.00;99416.88;10302013;28;20048;-63
2024/01/18 04:19:53;;;;;;;27.67;15.63;;;;;;;-0.84;100.00;99432.13;10304477;28;20057;-63
2024/01/18 04:25:15;;;;;;;34.28;18.33;;;;;;;-0.82;100.00;99440.59;10306924;28;20055;-64
2024/01/18 04:30:37;;;;;;;26.70;16.13;;;;;;;-0.95;100.00;99455.03;10307334;28;20413;-64
2024/01/18 04:35:58;;;;;;;28.55;17.25;;;;;;;-0.93;100.00;99452.50;10302996;28;20522;-64
2024/01/18 04:41:20;;;;;;;25.45;15.27;;;;;;;-0.89;100.00;99459.22;10305439;28;20047;-64
2024/01/18 04:46:42;;;;;;;23.65;15.63;;;;;;;-0.89;100.00;99469.38;10308047;28;20491;-64
2024/01/18 04:52:04;;;;;;;26.40;15.48;;;;;;;-0.93;100.00;99452.50;10324591;28;20058;-64
2024/01/18 04:57:26;;;;;;;28.85;15.95;;;;;;;-0.94;100.00;99459.28;10311622;28;20065;-64
2024/01/18 05:02:48;;;;;;;26.65;13.93;;;;;;;-0.96;100.00;99460.13;10309322;28;20303;-64
2024/01/18 05:08:09;;;;;;;24.77;15.10;;;;;;;-0.94;100.00;99466.03;10306749;28;20739;-64
2024/01/18 05:13:31;;;;;;;23.38;14.20;;;;;;;-0.95;100.00;99469.44;10299550;28;20046;-64
2024/01/18 05:18:53;;;;;;;22.48;13.57;;;;;;;-0.93;100.00;99472.81;10288151;28;20082;-64
2024/01/18 05:24:15;;;;;;;19.38;12.57;;;;;;;-0.89;100.00;99485.47;10306164;28;20534;-64
2024/01/18 05:29:37;;;;;;;25.48;11.52;;;;;;;-0.87;100.00;99475.28;10310466;28;20050;-64
2024/01/18 05:35:01;;;;;;;29.00;12.20;;;;;;;-0.86;100.00;99479.53;10310739;28;20133;-64
2024/01/18 05:40:22;;;;;;;22.58;11.20;;;;;;;-0.87;100.00;99491.38;10308081;28;20101;-64
2024/01/18 05:45:44;;;;;;;19.17;11.38;;;;;;;-0.82;100.00;99493.91;10308865;28;20137;-63
2024/01/18 05:51:06;;;;;;;18.05;10.52;;;;;;;-0.77;100.00;99497.25;10333840;28;20050;-64
2024/01/18 05:56:27;;;;;;;19.40;10.05;;;;;;;-0.78;100.00;99504.00;10305642;28;20047;-65
2024/01/18 06:01:49;;;;;;;18.88;10.60;;;;;;;-0.74;100.00;99505.69;10307647;28;20065;-63
2024/01/18 06:07:11;;;;;;;20.60;10.05;;;;;;;-0.72;100.00;99510.75;10304624;28;20471;-63
2024/01/18 06:12:32;;;;;;;19.58;10.00;;;;;;;-0.70;100.00;99524.28;10312671;28;20050;-65
2024/01/18 06:17:56;;;;;;;20.95;11.25;;;;;;;-0.80;100.00;99535.31;10323221;28;20083;-65
2024/01/18 06:23:18;;;;;;;19.00;10.57;;;;;;;-0.88;100.00;99532.00;10316157;28;20042;-65
2024/01/18 06:28:40;;;;;;;18.60;10.65;;;;;;;-0.83;100.00;99560.72;10290922;28;20046;-65
2024/01/18 06:34:02;;;;;;;19.67;10.45;;;;;;;-0.83;100.00;99558.19;10303520;28;20055;-64
2024/01/18 06:39:24;;;;;;;17.50;10.43;;;;;;;-0.84;100.00;99564.13;10306491;28;20042;-64
2024/01/18 06:44:46;;;;;;;20.95;10.30;;;;;;;-0.83;100.00;99575.97;10319457;28;20043;-65
2024/01/18 06:50:09;;;;;;;19.00;9.80;;;;;;;-0.84;100.00;99576.81;10304059;28;20062;-64
2024/01/18 06:55:31;;;;;;;23.20;10.07;;;;;;;-0.84;100.00;99581.91;10291172;28;20098;-65
2024/01/18 07:00:53;;;;;;;16.15;9.57;;;;;;;-0.81;100.00;99600.50;10303078;28;20479;-65
2024/01/18 07:06:14;;;;;;;20.83;12.60;;;;;;;-0.83;100.00;99609.81;10299983;28;20053;-65
2024/01/18 07:11:39;;;;;;;26.73;14.80;;;;;;;-0.79;100.00;99618.25;10301819;28;20085;-64
2024/01/18 07:17:01;;;;;;;29.30;14.57;;;;;;;-0.79;100.00;99613.19;10304326;28;20503;-64
2024/01/18 07:22:23;;;;;;;20.80;11.25;;;;;;;-0.74;100.00;99626.69;10303081;28;20045;-64
2024/01/18 07:27:44;;;;;;;17.20;10.30;;;;;;;-0.74;100.00;99617.38;10306055;28;20042;-65
2024/01/18 07:33:06;;;;;;;16.98;9.75;;;;;;;-0.75;100.00;99640.25;10302416;28;20043;-65
2024/01/18 07:38:28;;;;;;;16.40;9.50;;;;;;;-0.79;100.00;99628.41;10296141;28;20065;-65
2024/01/18 07:43:50;;;;;;;14.80;8.60;;;;;;;-0.85;100.00;99633.50;10298013;28;20041;-65
2024/01/18 07:49:11;;;;;;;12.52;8.02;;;;;;;-0.97;100.00;99638.63;10304341;28;20137;-65
2024/01/18 07:54:33;;;;;;;16.33;9.52;;;;;;;-1.04;100.00;99645.41;10298839;28;20051;-64
2024/01/18 07:59:56;;;;;;;14.68;8.35;;;;;;;-1.05;100.00;99671.66;10314249;28;20047;-65
2024/01/18 08:05:17;;;;;;;20.15;9.50;;;;;;;-1.09;100.00;99667.41;10311604;28;20061;-64
2024/01/18 08:10:40;;;;;;;21.52;10.23;;;;;;;-1.07;100.00;99674.19;10308381;28;20042;-64
2024/01/18 08:16:02;;;;;;;15.18;9.30;;;;;;;-1.09;100.00;99680.09;10312775;28;20141;-64
2024/01/18 08:21:24;;;;;;;15.57;8.35;;;;;;;-1.01;100.00;99694.47;10284592;28;20085;-64
2024/01/18 08:26:46;;;;;;;16.35;8.80;;;;;;;-0.91;100.00;99699.50;10311542;28;20130;-64
2024/01/18 08:32:08;;;;;;;17.00;8.43;;;;;;;-0.96;100.00;99707.16;10310607;28;20141;-64
2024/01/18 08:37:29;;;;;;;16.15;8.15;;;;;;;-1.06;100.00;99703.78;10326708;28;20612;-64
2024/01/18 08:42:51;;;;;;;15.50;8.82;;;;;;;-1.07;100.00;99697.03;10310179;28;20046;-64
2024/01/18 08:48:13;;;;;;;13.85;8.23;;;;;;;-1.01;100.00;99708.88;10297360;28;20455;-64
2024/01/18 08:53:34;;;;;;;21.05;8.90;;;;;;;-0.93;100.00;99717.28;10321098;28;20042;-65
2024/01/18 08:58:56;;;;;;;14.30;8.52;;;;;;;-0.83;100.00;99728.28;10310046;28;20057;-65
2024/01/18 09:04:18;;;;;;;14.15;8.00;;;;;;;-0.83;100.00;99723.19;10306879;28;20057;-65
2024/01/18 09:09:39;;;;;;;18.40;8.80;;;;;;;-0.80;100.00;99748.56;10308340;28;20047;-64
2024/01/18 09:15:01;;;;;;;18.95;8.48;;;;;;;-0.72;100.00;99741.78;10305441;28;20046;-64
2024/01/18 09:20:23;;;;;;;14.85;8.30;;;;;;;-0.69;100.00;99751.94;10305644;28;20057;-64
2024/01/18 09:25:45;;;;;;;16.45;7.93;;;;;;;-0.57;100.00;99765.47;10303693;28;20046;-64
2024/01/18 09:31:06;;;;;;;17.40;7.50;;;;;;;-0.47;100.00;99773.88;10310687;28;20060;-64
2024/01/18 09:36:28;;;;;;;16.27;7.25;;;;;;;-0.35;100.00;99794.19;10307502;28;20054;-65
2024/01/18 09:41:51;;;;;;;18.80;8.85;;;;;;;-0.24;100.00;99795.81;10311418;28;20551;-65
2024/01/18 09:47:17;;;;;;;17.52;7.35;;;;;;;-0.14;100.00;99802.56;10310446;28;20224;-64
2024/01/18 09:52:40;;;;;;;13.63;6.28;;;;;;;-0.07;100.00;99814.41;10311183;28;20051;-64
2024/01/18 09:58:02;;;;;;;15.68;8.63;;;;;;;0.03;100.00;99822.84;10305667;28;20450;-64
2024/01/18 10:03:24;;;;;;;13.52;6.68;;;;;;;0.14;100.00;99836.34;10308819;28;20049;-64
2024/01/18 10:08:49;;;;;;;13.30;5.45;;;;;;;0.21;100.00;99840.56;10311122;28;20057;-64
2024/01/18 10:14:11;;;;;;;69.10;22.98;;;;;;;0.34;100.00;99854.06;10308143;28;20042;-64
2024/01/18 10:19:32;;;;;;;31.60;15.00;;;;;;;0.43;100.00;99859.94;10305559;28;20557;-64
2024/01/18 10:24:55;;;;;;;10.13;4.78;;;;;;;0.51;100.00;99865.00;10289004;28;20065;-65
2024/01/18 10:30:17;;;;;;;15.98;7.55;;;;;;;0.63;100.00;99875.94;10306732;28;20050;-65
2024/01/18 10:35:38;;;;;;;11.60;5.82;;;;;;;0.73;100.00;99877.56;10298667;28;20518;-65
2024/01/18 10:41:00;;;;;;;8.93;5.00;;;;;;;0.85;100.00;99885.16;10301833;28;20092;-64
2024/01/18 10:46:22;;;;;;;11.13;4.10;;;;;;;0.96;100.00;99887.63;10289766;28;20114;-64
2024/01/18 10:51:44;;;;;;;6.40;3.42;;;;;;;1.10;100.00;99915.53;10307565;28;20072;-65
2024/01/18 10:57:06;;;;;;;11.05;3.10;;;;;;;1.28;100.00;99935.78;10300811;28;20057;-64
2024/01/18 11:02:28;;;;;;;8.85;2.85;;;;;;;1.44;100.00;99929.72;10302575;28;20056;-65
2024/01/18 11:07:50;;;;;;;6.18;2.10;;;;;;;1.51;100.00;99942.41;10317828;28;20879;-65
2024/01/18 11:13:13;;;;;;;5.20;2.00;;;;;;;1.55;100.00;99943.22;10290174;28;20057;-65
2024/01/18 11:18:35;;;;;;;6.13;1.42;;;;;;;1.63;100.00;99957.56;10299449;28;20058;-63
2024/01/18 11:24:06;;;;;;;2.03;1.10;;;;;;;1.72;100.00;99965.16;10299684;28;20097;-65
2024/01/18 11:29:34;;;;;;;1.95;1.13;;;;;;;1.88;100.00;99971.81;10301801;28;20078;-65
2024/01/18 11:35:12;;;;;;;2.72;1.48;;;;;;;2.00;100.00;99978.50;10300338;28;20050;-65
2024/01/18 11:40:34;;;;;;;1.73;1.40;;;;;;;2.13;100.00;99972.41;10305853;28;20050;-63
2024/01/18 11:45:56;;;;;;;2.75;1.60;;;;;;;2.21;100.00;99974.91;10298622;28;20039;-63
2024/01/18 11:51:18;;;;;;;2.22;1.25;;;;;;;2.06;100.00;99965.69;10300368;28;20652;-64
2024/01/18 11:56:40;;;;;;;4.82;1.27;;;;;;;2.08;100.00;99976.72;10302871;28;20046;-63
2024/01/18 12:02:03;;;;;;;3.85;1.33;;;;;;;2.01;100.00;99957.25;10317835;28;20235;-62
2024/01/18 12:07:26;;;;;;;43.08;7.43;;;;;;;2.03;100.00;99948.69;10327403;28;20165;-62
2024/01/18 12:12:49;;;;;;;64.43;13.70;;;;;;;2.08;100.00;99963.97;10305143;28;20050;-64
2024/01/18 12:18:12;;;;;;;4.65;2.13;;;;;;;2.07;100.00;99982.69;10299245;28;20062;-65
2024/01/18 12:23:34;;;;;;;4.25;1.38;;;;;;;2.05;100.00;100002.28;10310727;28;20077;-65
2024/01/18 12:28:56;;;;;;;5.13;1.08;;;;;;;2.03;100.00;100011.66;10302511;28;20616;-64
2024/01/18 12:34:21;;;;;;;5.13;1.50;;;;;;;1.96;100.00;100028.69;10305009;28;20501;-65
2024/01/18 12:39:43;;;;;;;3.73;1.57;;;;;;;1.90;100.00;100027.91;10308007;28;20381;-63
2024/01/18 12:45:05;;;;;;;3.90;1.30;;;;;;;1.83;100.00;100039.03;10305626;28;20049;-63
2024/01/18 12:50:26;;;;;;;3.00;1.10;;;;;;;1.89;100.00;100054.25;10304135;28;20055;-62
2024/01/18 12:55:48;;;;;;;1.83;1.60;;;;;;;1.97;100.00;100063.56;10303185;28;20061;-65
2024/01/18 13:01:10;;;;;;;2.13;1.10;;;;;;;2.11;100.00;100075.38;10304143;28;20050;-65
2024/01/18 13:06:32;;;;;;;2.22;1.02;;;;;;;2.21;100.00;100093.13;10306037;28;20039;-65
2024/01/18 13:12:01;;;;;;;4.47;1.23;;;;;;;2.32;100.00;100104.09;10308367;28;20503;-65
2024/01/18 13:17:24;;;;;;;3.65;1.13;;;;;;;2.37;100.00;100110.00;10311904;28;20074;-65
2024/01/18 13:22:45;;;;;;;10.38;3.33;;;;;;;2.39;100.00;100113.38;10307416;28;20057;-65
2024/01/18 13:28:07;;;;;;;6.07;2.97;;;;;;;2.40;100.00;100122.72;10294860;28;20068;-64
2024/01/18 13:33:29;;;;;;;9.38;3.75;;;;;;;2.34;100.00;100129.59;10304909;28;20078;-65
2024/01/18 13:38:51;;;;;;;4.05;1.20;;;;;;;2.30;100.00;100141.53;10308022;28;20059;-63
2024/01/18 13:44:12;;;;;;;3.83;1.00;;;;;;;2.32;100.00;100157.69;10307757;28;20106;-63
2024/01/18 13:49:34;;;;;;;2.05;0.90;;;;;;;2.33;100.00;100164.47;10306854;28;20061;-65
2024/01/18 13:54:56;;;;;;;2.47;1.10;;;;;;;2.31;100.00;100171.28;10298253;28;20085;-65
2024/01/18 14:00:18;;;;;;;2.08;0.80;;;;;;;2.29;100.00;100177.28;10314311;28;20061;-65
2024/01/18 14:05:41;;;;;;;3.05;1.00;;;;;;;2.39;100.00;100196.75;10305887;28;20545;-62
2024/01/18 14:11:03;;;;;;;2.03;0.75;;;;;;;2.42;100.00;100200.13;10304256;28;20419;-64
2024/01/18 14:16:31;;;;;;;1.60;0.75;;;;;;;2.45;100.00;100218.00;10305141;28;20051;-64
2024/01/18 14:21:52;;;;;;;3.85;0.98;;;;;;;2.42;100.00;100225.66;10298018;28;20050;-65
2024/01/18 14:27:14;;;;;;;1.10;0.80;;;;;;;2.41;100.00;100239.28;10298483;28;20523;-64
2024/01/18 14:32:37;;;;;;;2.58;1.27;;;;;;;2.41;100.00;100252.06;10319019;28;20047;-64
2024/01/18 14:37:59;;;;;;;3.83;1.08;;;;;;;2.41;100.00;100264.81;10317943;28;20058;-63
2024/01/18 14:43:21;;;;;;;2.42;0.98;;;;;;;2.39;100.00;100266.53;10303984;28;20053;-63
2024/01/18 14:48:44;;;;;;;4.95;1.70;;;;;;;2.39;100.00;100271.63;10314909;28;20684;-63
2024/01/18 14:54:06;;;;;;;4.32;1.67;;;;;;;2.37;100.00;100283.56;10300736;28;20046;-63
2024/01/18 14:59:28;;;;;;;2.65;1.75;;;;;;;2.37;100.00;100293.75;10304917;28;20061;-63
2024/01/18 15:04:49;;;;;;;7.47;1.90;;;;;;;2.34;100.00;100304.00;10303274;28;20061;-63
2024/01/18 15:10:11;;;;;;;6.10;1.92;;;;;;;2.32;100.00;100312.50;10307319;28;20050;-63
2024/01/18 15:15:34;;;;;;;4.65;2.20;;;;;;;2.28;100.00;100334.66;10300975;28;20060;-63
2024/01/18 15:20:56;;;;;;;5.00;2.30;;;;;;;2.28;100.00;100344.84;10303139;28;20086;-63
2024/01/18 15:26:18;;;;;;;7.95;2.70;;;;;;;2.25;100.00;100349.97;10300400;28;20049;-63
2024/01/18 15:31:40;;;;;;;11.10;2.40;;;;;;;2.22;100.00;100361.88;10300320;28;20056;-63
2024/01/18 15:37:02;;;;;;;5.93;2.22;;;;;;;2.16;100.00;100375.53;10287111;28;20050;-64
2024/01/18 15:42:23;;;;;;;6.00;2.17;;;;;;;2.03;100.00;100379.81;10302795;28;20047;-64
2024/01/18 15:47:45;;;;;;;7.57;3.00;;;;;;;1.98;100.00;100386.63;10300943;28;20050;-64
2024/01/18 15:53:07;;;;;;;8.35;3.00;;;;;;;1.98;100.00;100406.19;10303864;28;20078;-64
2024/01/18 15:58:28;;;;;;;8.65;3.85;;;;;;;1.92;100.00;100426.63;10304222;28;20050;-64
2024/01/18 16:03:50;;;;;;;7.88;3.97;;;;;;;1.87;100.00;100423.22;10303146;28;20048;-63
2024/01/18 16:09:12;;;;;;;6.93;4.00;;;;;;;1.83;100.00;100447.03;10296322;28;20046;-63
2024/01/18 16:14:34;;;;;;;7.85;3.28;;;;;;;1.80;100.00;100444.47;10308340;28;20491;-63
2024/01/18 16:19:56;;;;;;;8.63;3.70;;;;;;;1.75;100.00;100449.59;10311715;28;20057;-63
2024/01/18 16:25:17;;;;;;;6.70;3.88;;;;;;;1.71;100.00;100452.13;10306731;28;20381;-63
2024/01/18 16:30:40;;;;;;;9.50;3.88;;;;;;;1.67;100.00;100465.72;10310328;28;20092;-65
2024/01/18 16:36:02;;;;;;;20.98;8.88;;;;;;;1.61;100.00;100468.31;10309160;28;20046;-64
2024/01/18 16:41:23;;;;;;;6.95;3.38;;;;;;;1.57;100.00;100481.88;10308322;28;20073;-64
2024/01/18 16:46:45;;;;;;;8.45;4.00;;;;;;;1.52;100.00;100486.13;10308640;28;20046;-64
2024/01/18 16:52:07;;;;;;;10.65;6.20;;;;;;;1.55;100.00;100498.88;10311940;28;20640;-64
2024/01/18 16:57:30;;;;;;;5.25;3.45;;;;;;;1.54;100.00;100500.56;10316133;28;20043;-63
2024/01/18 17:02:54;;;;;;;7.13;4.00;;;;;;;1.52;100.00;100506.53;10309510;28;20129;-64
2024/01/18 17:08:16;;;;;;;10.07;3.47;;;;;;;1.46;100.00;100514.16;10307941;28;20058;-64
2024/01/18 17:13:37;;;;;;;8.50;3.28;;;;;;;1.42;100.00;100525.19;10292454;28;20106;-64
2024/01/18 17:18:59;;;;;;;12.02;3.13;;;;;;;1.38;100.00;100539.63;10306533;28;20046;-64
2024/01/18 17:24:24;;;;;;;11.68;4.07;;;;;;;1.35;100.00;100549.81;10321489;28;20074;-63
2024/01/18 17:29:48;;;;;;;10.07;3.88;;;;;;;1.34;100.00;100560.03;10309512;28;20070;-64
2024/01/18 17:35:10;;;;;;;12.60;4.25;;;;;;;1.32;100.00;100574.44;10312382;28;20061;-64
2024/01/18 17:40:32;;;;;;;8.98;3.63;;;;;;;1.28;100.00;100582.94;10308701;28;20053;-64
2024/01/18 17:45:54;;;;;;;7.65;3.65;;;;;;;1.28;100.00;100596.53;10310886;28;20050;-65
2024/01/18 17:51:15;;;;;;;9.88;4.10;;;;;;;1.24;100.00;100601.59;10327624;28;20073;-64
2024/01/18 17:56:39;;;;;;;39.50;16.92;;;;;;;1.27;100.00;100606.69;10310739;28;20475;-64
2024/01/18 18:02:00;;;;;;;11.50;3.88;;;;;;;1.29;100.00;100605.84;10307936;28;20492;-64
2024/01/18 18:07:22;;;;;;;8.13;3.38;;;;;;;1.30;100.00;100616.91;10305865;28;20050;-64
2024/01/18 18:12:44;;;;;;;12.50;3.85;;;;;;;1.29;100.00;100615.19;10305861;28;20057;-64
2024/01/18 18:18:05;;;;;;;8.63;4.25;;;;;;;1.29;100.00;100622.84;10308154;28;20054;-64
2024/01/18 18:23:27;;;;;;;13.80;4.82;;;;;;;1.25;100.00;100636.41;10303554;28;20046;-64
2024/01/18 18:28:51;;;;;;;11.43;3.65;;;;;;;1.23;100.00;100640.66;10298440;28;20050;-63
2024/01/18 18:34:13;;;;;;;8.90;3.70;;;;;;;1.22;100.00;100642.34;10302032;28;20396;-64
2024/01/18 18:39:47;;;;;;;9.32;3.30;;;;;;;1.18;100.00;100640.63;10293402;28;20499;-64
2024/01/18 18:45:12;;;;;;;7.28;3.35;;;;;;;1.09;100.00;100667.75;10303235;28;20149;-63
2024/01/18 18:50:34;;;;;;;8.77;3.75;;;;;;;1.06;100.00;100672.84;10305676;28;20104;-63
2024/01/18 18:55:55;;;;;;;7.30;3.53;;;;;;;0.98;100.00;100678.75;10303301;28;20474;-63
2024/01/18 19:01:17;;;;;;;6.82;4.20;;;;;;;0.97;100.00;100688.94;10303623;28;20054;-63
2024/01/18 19:06:39;;;;;;;8.95;4.93;;;;;;;0.93;100.00;100703.31;10299820;28;20426;-64
2024/01/18 19:12:00;;;;;;;11.55;4.53;;;;;;;0.92;100.00;100711.81;10317940;28;20066;-64
2024/01/18 19:17:22;;;;;;;7.60;4.28;;;;;;;0.87;100.00;100713.47;10299839;28;20043;-63
2024/01/18 19:22:44;;;;;;;10.10;3.97;;;;;;;0.84;100.00;100728.72;10304909;28;20707;-63
2024/01/18 19:28:05;;;;;;;12.98;3.78;;;;;;;0.79;100.00;100734.59;10304645;28;20046;-63
2024/01/18 19:33:27;;;;;;;6.90;4.13;;;;;;;0.84;100.00;100738.06;10304973;28;20133;-64
2024/01/18 19:38:50;;;;;;;7.47;3.67;;;;;;;0.84;100.00;100748.25;10313658;28;20057;-64
2024/01/18 19:44:12;;;;;;;10.27;3.55;;;;;;;0.84;100.00;100745.69;10302468;28;20054;-64
2024/01/18 19:49:34;;;;;;;13.52;3.33;;;;;;;0.81;100.00;100749.06;10305254;28;20046;-64
2024/01/18 19:54:58;;;;;;;6.10;3.22;;;;;;;0.84;100.00;100773.72;10303872;28;20038;-64
2024/01/18 20:00:21;;;;;;;9.25;3.90;;;;;;;0.79;100.00;100766.03;10308263;28;20129;-64
2024/01/18 20:05:44;;;;;;;6.75;3.30;;;;;;;0.75;100.00;100784.66;10307704;28;20039;-64
2024/01/18 20:11:06;;;;;;;9.65;3.28;;;;;;;0.74;100.00;100793.13;10310582;28;20062;-64
2024/01/18 20:16:27;;;;;;;12.18;3.45;;;;;;;0.75;100.00;100783.81;10310547;28;20068;-64
2024/01/18 20:21:50;;;;;;;11.35;3.17;;;;;;;0.73;100.00;100799.06;10307759;28;20042;-64
2024/01/18 20:27:16;;;;;;;16.00;3.72;;;;;;;0.66;100.00;100799.84;10311151;28;20046;-64
2024/01/18 20:32:41;;;;;;;9.35;3.65;;;;;;;0.68;99.98;100813.44;10312276;28;20477;-64
2024/01/18 20:38:03;;;;;;;7.53;3.53;;;;;;;0.66;100.00;100820.22;10287223;28;20390;-64
2024/01/18 20:43:25;;;;;;;7.32;3.10;;;;;;;0.63;99.71;100825.28;10307349;28;20109;-64
2024/01/18 20:48:46;;;;;;;14.25;3.40;;;;;;;0.64;100.00;100829.53;10312540;28;20051;-64
2024/01/18 20:54:08;;;;;;;8.27;2.75;;;;;;;0.63;99.12;100835.47;10305270;28;20506;-64
2024/01/18 20:59:30;;;;;;;6.18;2.60;;;;;;;0.63;99.92;100835.47;10329646;28;20133;-63
2024/01/18 21:04:51;;;;;;;5.22;2.78;;;;;;;0.62;99.42;100838.81;10305577;28;20798;-64
2024/01/18 21:10:17;;;;;;;9.48;3.25;;;;;;;0.64;99.09;100842.25;10305119;28;20404;-64
2024/01/18 21:15:40;;;;;;;9.07;2.95;;;;;;;0.61;98.96;100847.31;10318482;28;20054;-63
2024/01/18 21:21:05;;;;;;;8.15;2.72;;;;;;;0.59;98.80;100858.31;10304735;28;20050;-63
2024/01/18 21:26:26;;;;;;;7.87;2.70;;;;;;;0.57;98.90;100865.94;10305790;28;20599;-63
2024/01/18 21:31:48;;;;;;;8.13;2.97;;;;;;;0.57;98.80;100870.16;10301817;28;20121;-64
2024/01/18 21:37:10;;;;;;;11.77;2.42;;;;;;;0.58;98.26;100867.66;10305721;28;20064;-64
2024/01/18 21:42:31;;;;;;;5.30;2.40;;;;;;;0.56;98.52;100884.59;10305785;28;20496;-64
2024/01/18 21:47:53;;;;;;;8.88;3.00;;;;;;;0.51;98.38;100891.34;10295953;28;20034;-64
2024/01/18 21:53:18;;;;;;;13.27;3.40;;;;;;;0.48;98.01;100901.47;10308273;28;20059;-64
2024/01/18 21:58:40;;;;;;;12.75;3.20;;;;;;;0.47;98.63;100896.38;10297423;28;20042;-64
2024/01/18 22:04:03;;;;;;;5.07;2.78;;;;;;;0.49;98.52;100897.25;10303470;28;20539;-64
2024/01/18 22:09:27;;;;;;;10.30;3.67;;;;;;;0.47;97.75;100894.69;10307682;28;20140;-64
2024/01/18 22:15:01;;;;;;;11.20;2.90;;;;;;;0.50;98.35;100893.84;10304026;28;20144;-64
2024/01/18 22:20:23;;;;;;;10.95;4.07;;;;;;;0.48;97.90;100900.59;10302021;28;20416;-64
2024/01/18 22:25:45;;;;;;;11.93;5.13;;;;;;;0.52;98.06;100922.72;10302512;28;20090;-64
2024/01/18 22:31:07;;;;;;;13.20;3.00;;;;;;;0.55;97.32;100928.69;10304404;28;20069;-64
2024/01/18 22:36:28;;;;;;;8.57;2.42;;;;;;;0.57;97.28;100932.09;10300909;28;20049;-63
2024/01/18 22:41:50;;;;;;;15.90;5.63;;;;;;;0.58;97.52;100944.03;10305933;28;20141;-63
2024/01/18 22:47:12;;;;;;;6.38;2.90;;;;;;;0.53;96.80;100940.53;10291586;28;20050;-63
2024/01/18 22:52:33;;;;;;;5.85;2.40;;;;;;;0.57;96.59;100942.28;10304018;28;20047;-63
2024/01/18 22:57:55;;;;;;;15.13;3.60;;;;;;;0.56;96.30;100953.31;10300242;28;20048;-63
2024/01/18 23:03:17;;;;;;;11.52;2.90;;;;;;;0.61;95.89;100961.84;10302014;28;20061;-63
2024/01/18 23:08:38;;;;;;;13.23;3.08;;;;;;;0.61;95.92;100959.31;10299585;28;20053;-64
2024/01/18 23:14:01;;;;;;;14.32;4.55;;;;;;;0.63;96.30;100956.78;10306743;28;20146;-64
2024/01/18 23:19:22;;;;;;;8.70;2.53;;;;;;;0.64;95.82;100959.34;10300240;28;20062;-63
2024/01/18 23:24:44;;;;;;;14.57;3.28;;;;;;;0.68;95.42;100961.09;10306311;28;20129;-63
2024/01/18 23:30:06;;;;;;;15.77;4.90;;;;;;;0.65;95.68;100968.72;10305667;28;20053;-63
2024/01/18 23:35:28;;;;;;;9.13;2.67;;;;;;;0.67;95.50;100977.22;10298115;28;20504;-63
2024/01/18 23:40:50;;;;;;;10.85;2.63;;;;;;;0.67;95.65;100974.66;10304524;28;20054;-63
2024/01/18 23:46:11;;;;;;;12.93;2.63;;;;;;;0.67;95.72;100976.34;10302105;28;20042;-63
2024/01/18 23:51:33;;;;;;;3.75;2.22;;;;;;;0.70;95.23;100974.69;10296501;28;20050;-63
2024/01/18 23:56:55;;;;;;;8.10;2.30;;;;;;;0.68;95.82;100973.81;10299713;28;20043;-63
